Time;durP1;ratioP1;P1;durP2;ratioP2;P2;SDS_P1;SDS_P2;PMS_P1;PMS_P2;Temp;Humidity;BMP_temperature;BMP_pressure;BME280_temperature;BME280_humidity;BME280_pressure;Samples;Min_cycle;Max_cycle;Signal;HPM_P1;HPM_P2
2022/08/19 00:01:34;;;;;;;6.95;6.25;;;;;;;20.06;100.00;100248.97;4974964;28;20060;-78
2022/08/19 00:04:09;;;;;;;7.35;6.65;;;;;;;20.02;100.00;100246.63;4992636;28;20045;-78
2022/08/19 00:06:36;;;;;;;7.13;6.43;;;;;;;20.03;100.00;100248.34;4993593;28;20049;-79
2022/08/19 00:09:05;;;;;;;7.63;6.85;;;;;;;20.04;100.00;100239.31;5007986;28;20044;-79
2022/08/19 00:11:32;;;;;;;8.25;7.45;;;;;;;20.06;100.00;100240.06;5002479;28;20053;-79
2022/08/19 00:13:59;;;;;;;7.85;7.05;;;;;;;20.05;100.00;100241.91;4993631;28;20052;-78
2022/08/19 00:16:25;;;;;;;7.03;6.32;;;;;;;20.01;100.00;100237.72;5007474;28;20064;-79
2022/08/19 00:18:53;;;;;;;8.00;7.15;;;;;;;19.99;100.00;100236.94;4978794;28;20053;-79
2022/08/19 00:21:20;;;;;;;6.68;6.07;;;;;;;19.96;100.00;100239.84;4991138;28;21026;-79
2022/08/19 00:23:47;;;;;;;7.45;6.75;;;;;;;19.94;100.00;100247.97;4993584;28;20037;-78
2022/08/19 00:26:14;;;;;;;7.88;6.72;;;;;;;19.94;100.00;100239.06;5008240;28;20099;-79
2022/08/19 00:28:40;;;;;;;7.43;6.72;;;;;;;19.94;100.00;100231.91;4991010;28;20202;-78
2022/08/19 00:31:08;;;;;;;7.25;6.55;;;;;;;19.91;100.00;100231.22;4991581;28;20041;-78
2022/08/19 00:33:35;;;;;;;8.15;7.35;;;;;;;19.91;100.00;100228.53;4992835;28;20049;-78
2022/08/19 00:36:06;;;;;;;7.85;7.10;;;;;;;19.85;100.00;100235.19;5000679;28;20033;-78
2022/08/19 00:38:38;;;;;;;7.18;6.47;;;;;;;19.87;100.00;100235.06;4993233;28;20037;-79
2022/08/19 00:41:05;;;;;;;7.40;6.70;;;;;;;19.89;100.00;100238.50;4977819;28;20053;-78
2022/08/19 00:43:32;;;;;;;6.45;5.85;;;;;;;19.88;100.00;100242.16;4993920;28;20053;-79
2022/08/19 00:45:59;;;;;;;7.70;6.97;;;;;;;19.86;100.00;100249.44;5007785;28;20037;-79
2022/08/19 00:48:26;;;;;;;6.63;6.03;;;;;;;19.85;100.00;100255.78;5010207;28;20044;-79
2022/08/19 00:50:54;;;;;;;6.57;5.93;;;;;;;19.86;100.00;100249.44;4992004;28;20037;-78
2022/08/19 00:53:23;;;;;;;6.95;6.25;;;;;;;19.91;100.00;100252.66;4991591;28;20112;-79
2022/08/19 00:55:53;;;;;;;8.25;6.40;;;;;;;19.93;100.00;100257.00;5025339;28;20041;-78
2022/08/19 00:58:23;;;;;;;8.80;6.95;;;;;;;19.94;100.00;100256.03;5008048;28;20060;-79
2022/08/19 01:00:50;;;;;;;6.78;6.05;;;;;;;19.95;100.00;100260.41;4985228;28;20041;-79
2022/08/19 01:03:19;;;;;;;6.93;6.22;;;;;;;19.98;100.00;100261.19;4987063;28;21221;-78
2022/08/19 01:05:47;;;;;;;7.82;7.03;;;;;;;19.93;100.00;100264.19;5007865;28;20124;-78
2022/08/19 01:08:15;;;;;;;7.22;5.95;;;;;;;19.99;100.00;100246.81;5008579;28;22010;-78
2022/08/19 01:10:46;;;;;;;7.25;6.47;;;;;;;20.02;100.00;100247.47;4989679;28;20128;-78
2022/08/19 01:13:14;;;;;;;7.03;6.43;;;;;;;20.01;100.00;100252.91;5009276;28;20033;-78
2022/08/19 01:15:55;;;;;;;7.13;6.43;;;;;;;20.00;100.00;100249.38;5016647;28;20072;-79
2022/08/19 01:18:22;;;;;;;6.70;6.10;;;;;;;20.00;100.00;100241.34;5000542;28;20038;-78
2022/08/19 01:20:51;;;;;;;7.93;6.40;;;;;;;19.98;100.00;100239.72;5009425;28;20048;-78
2022/08/19 01:23:18;;;;;;;6.80;6.10;;;;;;;19.94;100.00;100249.81;4983987;28;20037;-78
2022/08/19 01:25:49;;;;;;;6.78;5.78;;;;;;;19.92;100.00;100249.88;5013173;28;20042;-79
2022/08/19 01:28:25;;;;;;;6.95;6.25;;;;;;;19.94;100.00;100236.41;5015196;28;20044;-78
2022/08/19 01:31:02;;;;;;;7.15;6.40;;;;;;;19.91;100.00;100233.91;5021491;28;20040;-78
2022/08/19 01:33:34;;;;;;;7.93;7.13;;;;;;;19.90;100.00;100240.22;5007244;28;20045;-78
2022/08/19 01:36:12;;;;;;;6.55;5.95;;;;;;;19.84;100.00;100238.81;5000849;28;20510;-76
2022/08/19 01:38:42;;;;;;;7.40;6.38;;;;;;;19.80;100.00;100241.78;5003049;28;20041;-78
2022/08/19 01:41:13;;;;;;;7.30;6.70;;;;;;;19.78;100.00;100239.22;4997437;28;20038;-79
2022/08/19 01:43:40;;;;;;;6.53;5.65;;;;;;;19.77;100.00;100247.38;5022108;28;20037;-78
2022/08/19 01:46:27;;;;;;;6.72;6.10;;;;;;;19.73;100.00;100245.84;4999760;28;20065;-78
2022/08/19 01:48:53;;;;;;;6.22;5.63;;;;;;;19.71;100.00;100250.44;5024925;28;20052;-78
2022/08/19 01:51:20;;;;;;;7.32;6.63;;;;;;;19.70;100.00;100249.59;5022181;28;20518;-77
2022/08/19 01:53:48;;;;;;;6.32;5.72;;;;;;;19.70;100.00;100249.59;5009141;28;20068;-78
2022/08/19 01:56:15;;;;;;;6.63;6.03;;;;;;;19.70;100.00;100246.03;5013291;28;20049;-78
2022/08/19 01:58:47;;;;;;;6.88;6.00;;;;;;;19.71;100.00;100248.63;5034015;28;20509;-78
2022/08/19 02:01:14;;;;;;;8.32;6.40;;;;;;;19.74;100.00;100248.41;5001687;28;20080;-78
2022/08/19 02:03:41;;;;;;;6.97;6.28;;;;;;;19.75;100.00;100250.13;5018027;28;20041;-78
2022/08/19 02:06:08;;;;;;;7.60;6.72;;;;;;;19.78;100.00;100251.75;5037534;28;20033;-78
2022/08/19 02:08:37;;;;;;;8.25;6.68;;;;;;;19.78;100.00;100243.72;5005906;28;20037;-78
2022/08/19 02:11:06;;;;;;;6.95;6.25;;;;;;;19.76;100.00;100246.50;5011578;28;20406;-78
2022/08/19 02:13:34;;;;;;;7.82;6.95;;;;;;;19.77;100.00;100247.38;5012179;28;20045;-78
2022/08/19 02:16:00;;;;;;;7.75;7.03;;;;;;;19.77;100.00;100252.72;5004560;28;20041;-78
2022/08/19 02:18:30;;;;;;;7.60;6.90;;;;;;;19.74;100.00;100252.91;5001107;28;20045;-78
2022/08/19 02:20:56;;;;;;;7.25;6.55;;;;;;;19.71;100.00;100259.34;4978961;28;20045;-78
2022/08/19 02:23:23;;;;;;;7.07;6.38;;;;;;;19.71;100.00;100258.47;5030824;28;20042;-78
2022/08/19 02:25:51;;;;;;;7.50;6.43;;;;;;;19.74;100.00;100269.00;5014803;28;20044;-78
2022/08/19 02:28:17;;;;;;;7.60;6.90;;;;;;;19.73;100.00;100273.50;5008068;28;20044;-78
2022/08/19 02:30:46;;;;;;;8.13;7.40;;;;;;;19.72;100.00;100273.59;4995503;28;20117;-78
2022/08/19 02:33:12;;;;;;;8.48;7.68;;;;;;;19.68;100.00;100276.50;4996774;28;20037;-78
2022/08/19 02:35:43;;;;;;;8.88;8.02;;;;;;;19.74;100.00;100272.53;5016171;28;20037;-78
2022/08/19 02:38:25;;;;;;;8.57;6.93;;;;;;;19.69;100.00;100271.97;4997797;28;20043;-78
2022/08/19 02:40:58;;;;;;;7.80;6.90;;;;;;;19.66;100.00;100280.19;5038858;28;20048;-78
2022/08/19 02:43:27;;;;;;;8.65;7.72;;;;;;;19.72;100.00;100284.31;5023020;28;20075;-78
2022/08/19 02:45:54;;;;;;;7.82;7.10;;;;;;;19.70;100.00;100271.03;4999812;28;20084;-78
2022/08/19 02:48:23;;;;;;;7.95;6.90;;;;;;;19.65;100.00;100268.63;5023259;28;20038;-78
2022/08/19 02:50:54;;;;;;;8.57;7.72;;;;;;;19.63;100.00;100267.00;5014474;28;20145;-79
2022/08/19 02:53:23;;;;;;;8.10;7.30;;;;;;;19.61;100.00;100267.13;5016708;28;20174;-78
2022/08/19 02:55:51;;;;;;;8.90;7.70;;;;;;;19.62;100.00;100259.94;4999106;28;20050;-79
2022/08/19 02:58:18;;;;;;;9.73;7.80;;;;;;;19.56;100.00;100258.50;4998112;28;20041;-79
2022/08/19 03:00:49;;;;;;;8.75;7.85;;;;;;;19.57;100.00;100249.50;5020146;28;20118;-79
2022/08/19 03:03:19;;;;;;;10.88;9.07;;;;;;;19.57;100.00;100260.22;5012264;28;20080;-78
2022/08/19 03:05:46;;;;;;;9.80;8.80;;;;;;;19.45;100.00;100252.09;4982357;28;20045;-79
2022/08/19 03:08:23;;;;;;;8.80;7.90;;;;;;;19.43;100.00;100260.22;5011042;28;20049;-79
2022/08/19 03:10:52;;;;;;;11.15;9.30;;;;;;;19.38;100.00;100249.78;5035317;28;20046;-78
2022/08/19 03:13:19;;;;;;;10.93;9.65;;;;;;;19.40;100.00;100253.22;4999078;28;20124;-79
2022/08/19 03:15:47;;;;;;;13.35;10.13;;;;;;;19.36;100.00;100248.16;5046325;28;20044;-78
2022/08/19 03:18:14;;;;;;;11.07;9.27;;;;;;;19.27;100.00;100238.91;5015023;28;20564;-79
2022/08/19 03:20:54;;;;;;;16.02;13.75;;;;;;;19.25;100.00;100223.88;5002012;28;20140;-78
2022/08/19 03:23:21;;;;;;;9.93;8.93;;;;;;;19.23;100.00;100228.47;5011943;28;20657;-79
2022/08/19 03:25:49;;;;;;;11.52;9.00;;;;;;;19.20;100.00;100224.16;5003363;28;20081;-79
2022/08/19 03:28:36;;;;;;;10.68;9.57;;;;;;;19.18;100.00;100222.56;4995023;28;20049;-79
2022/08/19 03:31:07;;;;;;;10.77;9.68;;;;;;;19.16;100.00;100229.81;4985115;28;20496;-79
2022/08/19 03:33:54;;;;;;;11.52;10.32;;;;;;;19.17;100.00;100237.75;4994285;28;20046;-78
2022/08/19 03:36:25;;;;;;;11.82;10.63;;;;;;;19.27;100.00;100238.03;4999804;28;20461;-79
2022/08/19 03:38:57;;;;;;;10.60;9.48;;;;;;;19.27;100.00;100233.53;4994908;28;20502;-78
2022/08/19 03:41:28;;;;;;;11.20;10.00;;;;;;;19.25;100.00;100234.56;5013380;28;20149;-79
2022/08/19 03:44:11;;;;;;;11.23;10.02;;;;;;;19.19;100.00;100237.66;5031520;28;20494;-79
2022/08/19 03:46:45;;;;;;;11.68;10.43;;;;;;;19.13;100.00;100241.56;4996045;28;20033;-78
2022/08/19 03:49:12;;;;;;;13.82;10.90;;;;;;;19.09;100.00;100257.00;4995623;28;20053;-78
2022/08/19 03:51:40;;;;;;;11.52;10.40;;;;;;;19.06;100.00;100259.84;4995364;28;20037;-78
2022/08/19 03:54:09;;;;;;;12.60;10.27;;;;;;;19.05;100.00;100259.94;4998892;28;20049;-78
2022/08/19 03:56:38;;;;;;;11.65;10.45;;;;;;;19.06;100.00;100250.94;4992855;28;20033;-79
2022/08/19 03:59:07;;;;;;;11.77;10.57;;;;;;;19.04;100.00;100253.72;5011540;28;20052;-78
2022/08/19 04:01:34;;;;;;;11.88;10.40;;;;;;;19.03;100.00;100256.50;5017385;28;20718;-78
2022/08/19 04:04:01;;;;;;;11.40;10.13;;;;;;;19.09;100.00;100262.34;4996422;28;20095;-79
2022/08/19 04:06:34;;;;;;;12.68;11.43;;;;;;;19.04;100.00;100261.75;5000750;28;20040;-79
2022/08/19 04:09:07;;;;;;;11.75;10.45;;;;;;;19.01;100.00;100269.97;5015150;28;20034;-79
2022/08/19 04:11:41;;;;;;;12.48;11.18;;;;;;;19.05;100.00;100263.47;4994821;28;20033;-80
2022/08/19 04:14:16;;;;;;;13.82;12.00;;;;;;;19.09;100.00;100261.47;4997469;28;20049;-79
2022/08/19 04:16:44;;;;;;;11.98;10.77;;;;;;;19.02;100.00;100263.66;5002274;28;20033;-79
2022/08/19 04:19:12;;;;;;;12.30;11.00;;;;;;;19.04;100.00;100261.75;5010303;28;20037;-79
2022/08/19 04:21:39;;;;;;;12.20;10.90;;;;;;;19.02;100.00;100260.13;4992464;28;20700;-79
2022/08/19 04:24:06;;;;;;;13.05;11.60;;;;;;;19.00;100.00;100262.91;5013229;28;20049;-79
2022/08/19 04:26:35;;;;;;;12.98;11.68;;;;;;;18.99;100.00;100261.16;5005651;28;20108;-79
2022/08/19 04:29:09;;;;;;;13.15;11.75;;;;;;;19.00;100.00;100270.06;4999340;28;20042;-79
2022/08/19 04:31:39;;;;;;;13.32;11.40;;;;;;;18.98;100.00;100264.78;4996480;28;20040;-79
2022/08/19 04:34:10;;;;;;;11.40;10.18;;;;;;;19.01;100.00;100266.44;4995807;28;20045;-79
2022/08/19 04:36:41;;;;;;;13.18;11.52;;;;;;;19.03;100.00;100256.50;4997493;28;20033;-79
2022/08/19 04:39:15;;;;;;;12.23;10.82;;;;;;;19.03;100.00;100248.47;5012714;28;20042;-79
2022/08/19 04:44:33;;;;;;;11.30;10.10;;;;;;;19.03;100.00;100257.34;5004588;28;20045;-78
2022/08/19 04:47:03;;;;;;;12.13;10.93;;;;;;;19.07;100.00;100269.59;4994208;28;20053;-78
2022/08/19 04:49:37;;;;;;;12.82;11.48;;;;;;;19.06;100.00;100281.25;5026112;28;20029;-79
2022/08/19 04:52:03;;;;;;;12.15;10.85;;;;;;;19.06;100.00;100283.94;5024713;28;20041;-79
2022/08/19 04:54:30;;;;;;;16.58;12.27;;;;;;;19.11;100.00;100279.16;5008617;28;20438;-79
2022/08/19 04:57:06;;;;;;;12.73;11.43;;;;;;;19.12;100.00;100278.19;5008458;28;20033;-79
2022/08/19 04:59:34;;;;;;;14.15;12.10;;;;;;;19.20;100.00;100277.72;5027420;28;20045;-79
2022/08/19 05:02:01;;;;;;;12.95;10.70;;;;;;;19.25;100.00;100262.22;4989199;28;20050;-78
2022/08/19 05:04:30;;;;;;;12.23;10.93;;;;;;;19.35;100.00;100254.50;5011098;28;20048;-79
2022/08/19 05:06:58;;;;;;;13.07;11.70;;;;;;;19.43;100.00;100249.50;5015507;28;20128;-79
2022/08/19 05:09:27;;;;;;;12.68;11.45;;;;;;;19.45;100.00;100242.22;5006853;28;20048;-79
2022/08/19 05:12:07;;;;;;;11.55;10.43;;;;;;;19.45;100.00;100246.72;5000495;28;20038;-79
2022/08/19 05:14:36;;;;;;;14.27;12.50;;;;;;;19.50;100.00;100247.28;5011682;28;20114;-78
2022/08/19 05:17:03;;;;;;;13.07;11.70;;;;;;;19.58;100.00;100237.81;5001709;28;20104;-79
2022/08/19 05:22:35;;;;;;;12.90;11.55;;;;;;;19.65;100.00;100227.56;5012233;28;20100;-78
2022/08/19 05:25:05;;;;;;;12.98;11.55;;;;;;;19.66;100.00;100229.28;5028136;28;20045;-78
2022/08/19 05:27:39;;;;;;;13.23;11.90;;;;;;;19.65;100.00;100231.09;5015435;28;20033;-78
2022/08/19 05:30:07;;;;;;;13.05;11.77;;;;;;;19.64;100.00;100229.38;5019984;28;20168;-78
2022/08/19 05:32:34;;;;;;;14.60;12.43;;;;;;;19.62;100.00;100222.41;4992055;28;20045;-78
2022/08/19 05:35:01;;;;;;;13.60;12.20;;;;;;;19.67;100.00;100220.28;4996711;28;20064;-78
2022/08/19 05:37:28;;;;;;;14.15;12.68;;;;;;;19.72;100.00;100214.63;5015925;28;20032;-78
2022/08/19 05:39:55;;;;;;;16.05;13.63;;;;;;;19.81;100.00;100203.31;5010896;28;20510;-78
2022/08/19 05:42:22;;;;;;;17.45;15.55;;;;;;;19.87;100.00;100201.09;5017442;28;20038;-79
2022/08/19 05:44:50;;;;;;;15.45;13.65;;;;;;;19.83;100.00;100186.16;5003633;28;20048;-79
2022/08/19 05:47:19;;;;;;;17.70;15.88;;;;;;;19.79;100.00;100184.66;4993766;28;20033;-79
2022/08/19 05:49:46;;;;;;;20.52;18.23;;;;;;;19.79;100.00;100189.16;5023384;28;20033;-79
2022/08/19 05:52:15;;;;;;;18.88;16.88;;;;;;;19.79;100.00;100199.88;5048169;22;20045;-78
2022/08/19 05:54:47;;;;;;;20.52;18.33;;;;;;;19.84;100.00;100198.63;5037947;28;20501;-77
2022/08/19 05:57:16;;;;;;;21.00;18.48;;;;;;;19.85;100.00;100202.16;5013398;28;20044;-78
2022/08/19 05:59:51;;;;;;;20.25;18.15;;;;;;;19.85;100.00;100207.53;5015853;28;20047;-78
2022/08/19 06:02:27;;;;;;;18.70;16.70;;;;;;;19.85;100.00;100202.16;4988456;28;20060;-79
2022/08/19 06:04:54;;;;;;;21.92;19.02;;;;;;;19.92;100.00;100195.41;5010971;28;20560;-80
2022/08/19 06:07:21;;;;;;;21.70;18.92;;;;;;;19.95;100.00;100187.16;5016836;28;20045;-78
2022/08/19 06:09:48;;;;;;;20.75;18.25;;;;;;;19.91;100.00;100197.22;5006985;28;20037;-79
2022/08/19 06:12:33;;;;;;;20.90;18.70;;;;;;;19.88;100.00;100196.59;5004662;28;20069;-80
2022/08/19 06:15:04;;;;;;;20.50;18.42;;;;;;;19.89;100.00;100198.28;5022646;28;20068;-80
2022/08/19 06:17:31;;;;;;;22.73;20.33;;;;;;;19.98;100.00;100191.47;5011100;28;20036;-79
2022/08/19 06:19:58;;;;;;;22.45;20.13;;;;;;;20.02;100.00;100188.50;5016006;28;20140;-80
2022/08/19 06:22:26;;;;;;;23.33;20.95;;;;;;;20.09;100.00;100184.41;4998218;28;20132;-78
2022/08/19 06:24:54;;;;;;;23.27;20.83;;;;;;;20.15;100.00;100193.88;5020679;28;20075;-78
2022/08/19 06:27:21;;;;;;;25.33;21.10;;;;;;;20.25;100.00;100201.19;5003517;28;20052;-78
2022/08/19 06:29:47;;;;;;;22.38;20.13;;;;;;;20.24;100.00;100191.41;5016812;28;20128;-79
2022/08/19 06:32:16;;;;;;;20.35;18.15;;;;;;;20.38;100.00;100195.00;5012992;28;20083;-79
2022/08/19 06:34:42;;;;;;;21.90;19.50;;;;;;;20.47;100.00;100189.03;5003668;28;20232;-79
2022/08/19 06:37:11;;;;;;;22.38;19.98;;;;;;;20.58;100.00;100186.44;5025816;28;20043;-78
2022/08/19 06:39:40;;;;;;;21.55;19.33;;;;;;;20.74;100.00;100192.47;5003887;28;20414;-80
2022/08/19 06:42:09;;;;;;;21.00;18.80;;;;;;;20.98;100.00;100194.41;4997418;28;20076;-79
2022/08/19 06:44:38;;;;;;;19.38;17.45;;;;;;;21.14;100.00;100189.66;5025630;28;20720;-81
2022/08/19 06:47:12;;;;;;;20.45;17.85;;;;;;;21.28;100.00;100192.25;5003653;28;20040;-79
2022/08/19 06:49:49;;;;;;;19.08;17.08;;;;;;;21.39;100.00;100188.75;4993159;28;20106;-79
2022/08/19 06:52:16;;;;;;;18.20;16.40;;;;;;;21.49;100.00;100199.69;5009910;28;20038;-79
2022/08/19 06:54:43;;;;;;;17.95;15.63;;;;;;;21.55;100.00;100200.13;5000471;28;20133;-79
2022/08/19 06:57:23;;;;;;;21.25;16.80;;;;;;;21.68;100.00;100200.06;4999704;28;20038;-80
2022/08/19 06:59:50;;;;;;;18.75;16.85;;;;;;;21.89;100.00;100197.63;5020588;28;20133;-79
2022/08/19 07:02:17;;;;;;;16.75;15.07;;;;;;;22.15;100.00;100199.22;4993660;28;20118;-80
2022/08/19 07:04:48;;;;;;;16.00;14.45;;;;;;;22.42;100.00;100209.72;5021580;28;20136;-80
2022/08/19 07:07:20;;;;;;;15.07;13.57;;;;;;;22.53;100.00;100202.63;5021782;28;20437;-80
2022/08/19 07:09:48;;;;;;;15.85;14.30;;;;;;;22.61;100.00;100205.59;5025334;28;20037;-79
2022/08/19 07:12:32;;;;;;;17.30;15.38;;;;;;;22.76;100.00;100202.56;5008612;28;20068;-80
2022/08/19 07:15:03;;;;;;;14.35;13.05;;;;;;;22.73;100.00;100210.03;5010443;28;20495;-79
2022/08/19 07:17:30;;;;;;;16.48;14.25;;;;;;;22.60;100.00;100225.41;5018280;28;20041;-80
2022/08/19 07:19:56;;;;;;;16.08;14.43;;;;;;;22.51;100.00;100215.34;5032266;28;20109;-79
2022/08/19 07:22:32;;;;;;;16.40;14.48;;;;;;;22.52;100.00;100219.75;5009722;28;20071;-79
2022/08/19 07:24:59;;;;;;;15.52;14.02;;;;;;;22.60;100.00;100230.81;5014981;28;20502;-79
2022/08/19 07:27:26;;;;;;;14.80;13.30;;;;;;;22.50;100.00;100225.28;5002733;28;20038;-79
2022/08/19 07:29:53;;;;;;;14.35;12.95;;;;;;;22.51;100.00;100237.75;5015290;28;20041;-78
2022/08/19 07:32:22;;;;;;;13.98;12.57;;;;;;;22.46;100.00;100230.03;4988731;28;20042;-79
2022/08/19 07:34:48;;;;;;;13.52;12.30;;;;;;;22.51;100.00;100228.81;4994762;28;20045;-78
2022/08/19 07:37:15;;;;;;;15.27;13.65;;;;;;;22.60;100.00;100228.97;5009445;28;20125;-80
2022/08/19 07:39:42;;;;;;;14.25;12.57;;;;;;;22.63;100.00;100235.97;4999689;28;20041;-79
2022/08/19 07:42:10;;;;;;;14.75;13.23;;;;;;;22.65;100.00;100242.94;5014551;28;20045;-79
2022/08/19 07:44:39;;;;;;;13.48;12.27;;;;;;;22.63;100.00;100252.13;5012481;28;20048;-79
2022/08/19 07:47:10;;;;;;;14.88;13.38;;;;;;;22.74;100.00;100262.91;5025278;28;20029;-77
2022/08/19 07:49:57;;;;;;;12.60;11.30;;;;;;;22.67;100.00;100264.34;4987270;28;20037;-78
2022/08/19 07:52:23;;;;;;;14.82;13.32;;;;;;;22.72;100.00;100265.72;5002949;28;20092;-79
2022/08/19 07:54:50;;;;;;;12.55;11.25;;;;;;;22.70;100.00;100256.91;5005080;28;20057;-79
2022/08/19 07:57:18;;;;;;;13.30;11.90;;;;;;;22.65;100.00;100259.09;4995016;28;20045;-79
2022/08/19 07:59:45;;;;;;;12.13;10.95;;;;;;;22.55;100.00;100262.63;5015953;28;20513;-77
2022/08/19 08:02:12;;;;;;;11.30;10.20;;;;;;;22.35;100.00;100256.91;5012099;28;20033;-78
2022/08/19 08:11:02;;;;;;;12.10;10.90;;;;;;;22.12;100.00;100265.88;5014119;28;20056;-77
2022/08/19 08:13:35;;;;;;;13.20;12.00;;;;;;;22.07;100.00;100263.50;5017711;28;20033;-79
2022/08/19 08:16:05;;;;;;;13.07;11.85;;;;;;;22.02;100.00;100273.72;5014277;28;20148;-79
2022/08/19 08:18:41;;;;;;;13.07;11.38;;;;;;;21.96;100.00;100278.72;5027608;28;20052;-81
2022/08/19 08:21:08;;;;;;;13.40;12.02;;;;;;;21.89;100.00;100279.16;4989378;28;20033;-79
2022/08/19 08:23:35;;;;;;;14.45;12.93;;;;;;;22.00;100.00;100277.50;4996576;28;20060;-80
2022/08/19 08:26:05;;;;;;;17.13;13.48;;;;;;;21.98;100.00;100263.31;5029884;28;20034;-81
2022/08/19 08:28:31;;;;;;;15.20;13.63;;;;;;;21.74;100.00;100257.91;5006120;28;20034;-79
2022/08/19 08:30:59;;;;;;;15.90;13.98;;;;;;;21.64;100.00;100246.97;5000545;28;20077;-80
2022/08/19 08:33:27;;;;;;;22.52;16.55;;;;;;;21.68;100.00;100248.44;5008513;28;20038;-80
2022/08/19 08:36:02;;;;;;;15.95;13.57;;;;;;;21.53;100.00;100246.91;5002674;28;20635;-78
2022/08/19 08:38:31;;;;;;;16.50;14.55;;;;;;;21.46;100.00;100259.06;5001234;28;20029;-78
2022/08/19 08:41:28;;;;;;;16.98;14.63;;;;;;;21.38;100.00;100275.72;4974700;28;20042;-78
2022/08/19 08:43:56;;;;;;;15.30;13.73;;;;;;;21.38;100.00;100272.19;5005459;28;20549;-78
2022/08/19 08:46:46;;;;;;;15.50;13.65;;;;;;;21.40;100.00;100271.09;5006246;28;20153;-78
2022/08/19 08:49:45;;;;;;;15.18;13.50;;;;;;;21.56;100.00;100265.47;5008861;28;20037;-78
2022/08/19 08:52:36;;;;;;;14.68;13.20;;;;;;;21.49;100.00;100264.19;5024484;28;20499;-78
2022/08/19 08:55:11;;;;;;;16.02;14.32;;;;;;;21.59;100.00;100265.25;5009171;28;20045;-78
2022/08/19 08:57:46;;;;;;;14.30;12.88;;;;;;;21.62;100.00;100265.91;4990310;28;20494;-78
2022/08/19 09:00:18;;;;;;;18.30;15.90;;;;;;;21.81;100.00;100254.66;5005182;28;20172;-78
2022/08/19 09:02:44;;;;;;;16.05;13.50;;;;;;;21.80;100.00;100255.63;5004757;28;20040;-78
2022/08/19 09:05:20;;;;;;;15.52;13.90;;;;;;;21.87;100.00;100247.97;4997240;28;20092;-79
2022/08/19 09:08:08;;;;;;;15.32;13.75;;;;;;;22.04;100.00;100246.72;5008077;28;20375;-78
2022/08/19 09:10:53;;;;;;;15.45;13.95;;;;;;;22.13;100.00;100248.75;5018610;28;20040;-78
2022/08/19 09:13:34;;;;;;;14.98;13.35;;;;;;;22.12;100.00;100252.41;5006277;28;20041;-78
2022/08/19 09:16:13;;;;;;;15.50;13.77;;;;;;;22.19;100.00;100254.50;4995017;28;20061;-78
2022/08/19 09:18:46;;;;;;;14.93;13.50;;;;;;;22.29;100.00;100270.84;5008051;28;20065;-79
2022/08/19 09:21:15;;;;;;;15.80;14.27;;;;;;;22.34;100.00;100265.97;5009854;28;20049;-77
2022/08/19 09:23:43;;;;;;;14.63;13.23;;;;;;;22.39;100.00;100265.63;4993053;28;20053;-78
2022/08/19 09:26:15;;;;;;;13.95;12.45;;;;;;;22.45;100.00;100270.56;4967268;28;20045;-77
2022/08/19 09:28:47;;;;;;;15.52;14.02;;;;;;;22.60;100.00;100271.19;5007738;28;20403;-79
2022/08/19 09:31:21;;;;;;;14.13;12.73;;;;;;;22.76;100.00;100274.41;5008779;28;20129;-79
2022/08/19 09:33:48;;;;;;;;;;;;;;;22.94;100.00;100278.41;5011038;28;20034;-78
2022/08/19 09:36:19;;;;;;;13.68;12.25;;;;;;;23.01;100.00;100285.03;5022194;28;19979;-79
2022/08/19 09:39:00;;;;;;;14.40;13.00;;;;;;;23.15;100.00;100280.41;5011825;28;20033;-78
2022/08/19 09:41:28;;;;;;;13.10;11.80;;;;;;;23.14;100.00;100286.78;5005739;28;20057;-79
2022/08/19 09:43:56;;;;;;;13.13;11.75;;;;;;;23.25;100.00;100281.41;4995133;28;20049;-78
2022/08/19 09:46:26;;;;;;;13.80;12.50;;;;;;;23.52;100.00;100279.19;4993829;28;20057;-78
2022/08/19 09:48:53;;;;;;;13.93;12.48;;;;;;;23.79;100.00;100275.25;5001406;28;20714;-78
2022/08/19 09:51:22;;;;;;;13.52;12.15;;;;;;;24.01;100.00;100275.22;5010083;28;20037;-81
2022/08/19 09:53:50;;;;;;;13.00;11.63;;;;;;;24.36;100.00;100274.16;5001018;28;20053;-80
2022/08/19 09:56:19;;;;;;;11.55;10.38;;;;;;;24.57;100.00;100280.44;5012439;28;20376;-79
2022/08/19 09:58:46;;;;;;;11.95;10.75;;;;;;;24.90;100.00;100283.97;5030563;28;20038;-78
2022/08/19 10:01:22;;;;;;;12.68;11.45;;;;;;;25.36;100.00;100279.97;4994306;28;20056;-80
2022/08/19 10:03:53;;;;;;;11.27;10.18;;;;;;;25.87;100.00;100279.88;5014421;28;20071;-81
2022/08/19 10:06:21;;;;;;;10.90;9.80;;;;;;;26.17;97.93;100281.66;5000958;28;20082;-81
2022/08/19 10:09:10;;;;;;;11.43;10.32;;;;;;;25.32;100.00;100295.63;4997067;28;20162;-79
2022/08/19 10:11:40;;;;;;;10.98;9.93;;;;;;;25.14;100.00;100289.97;4995204;28;20043;-78
2022/08/19 10:14:21;;;;;;;10.70;9.70;;;;;;;25.47;100.00;100290.69;5015590;28;20061;-81
2022/08/19 10:16:49;;;;;;;11.25;10.23;;;;;;;25.37;100.00;100287.09;5019053;28;20037;-81
2022/08/19 10:19:15;;;;;;;11.45;10.38;;;;;;;25.41;100.00;100283.97;4983106;28;20048;-80
2022/08/19 10:21:53;;;;;;;11.55;10.45;;;;;;;25.73;100.00;100277.59;4983207;28;20045;-82
2022/08/19 10:24:20;;;;;;;11.32;10.23;;;;;;;25.27;100.00;100282.50;4980464;28;20046;-82
2022/08/19 10:26:48;;;;;;;12.10;10.90;;;;;;;25.47;100.00;100288.81;5025747;28;20640;-82
2022/08/19 10:29:22;;;;;;;11.10;10.10;;;;;;;25.37;100.00;100277.13;4981732;28;20041;-83
2022/08/19 10:32:01;;;;;;;12.27;10.18;;;;;;;24.99;100.00;100278.63;5006856;28;20045;-81
2022/08/19 10:34:29;;;;;;;11.32;10.23;;;;;;;24.97;100.00;100286.00;5015317;28;20104;-81
2022/08/19 10:36:57;;;;;;;11.00;10.00;;;;;;;24.71;100.00;100285.50;4997380;28;20433;-81
2022/08/19 10:39:29;;;;;;;11.90;10.63;;;;;;;24.48;100.00;100292.03;5035246;28;20041;-83
2022/08/19 10:41:57;;;;;;;11.73;10.57;;;;;;;24.29;100.00;100294.50;4988242;28;20052;-79
2022/08/19 10:44:24;;;;;;;11.98;10.88;;;;;;;24.32;100.00;100289.75;5002677;28;20044;-78
2022/08/19 10:46:58;;;;;;;12.05;10.90;;;;;;;24.50;100.00;100291.91;5011886;28;20076;-78
2022/08/19 10:49:25;;;;;;;11.80;10.70;;;;;;;24.73;100.00;100292.66;5029946;28;20034;-82
2022/08/19 10:57:34;;;;;;;12.32;11.13;;;;;;;24.80;100.00;100288.41;5008847;28;20029;-80
2022/08/19 11:00:22;;;;;;;11.60;10.50;;;;;;;25.11;100.00;100284.81;5011285;28;20041;-80
2022/08/19 11:02:50;;;;;;;14.07;11.27;;;;;;;25.43;100.00;100279.28;4992887;28;20153;-82
2022/08/19 11:05:17;;;;;;;12.18;10.77;;;;;;;25.76;100.00;100271.91;5010103;28;20049;-81
2022/08/19 11:07:45;;;;;;;11.55;10.25;;;;;;;25.92;96.21;100274.06;4993319;28;20048;-78
2022/08/19 11:10:13;;;;;;;10.88;9.85;;;;;;;26.17;90.84;100272.69;4986604;28;20045;-81
2022/08/19 11:12:46;;;;;;;10.98;9.98;;;;;;;25.70;92.57;100267.00;4996717;28;20080;-78
2022/08/19 11:15:12;;;;;;;10.65;9.65;;;;;;;25.67;88.65;100265.44;4998690;28;20045;-80
2022/08/19 11:17:43;;;;;;;10.88;9.45;;;;;;;25.73;95.92;100270.34;5008508;28;20426;-80
2022/08/19 11:20:14;;;;;;;10.88;9.77;;;;;;;25.63;94.23;100266.69;4975371;28;20064;-82
2022/08/19 11:22:41;;;;;;;10.20;9.20;;;;;;;25.70;91.11;100259.72;4994545;28;20056;-81
2022/08/19 11:25:10;;;;;;;10.23;9.32;;;;;;;25.59;89.03;100262.56;4993956;28;20037;-82
2022/08/19 11:27:44;;;;;;;9.82;8.90;;;;;;;25.48;96.11;100268.94;5009566;28;20509;-80
2022/08/19 11:30:12;;;;;;;10.10;9.20;;;;;;;25.58;91.63;100266.25;4987022;28;20042;-82
2022/08/19 11:32:40;;;;;;;11.35;10.13;;;;;;;25.68;88.85;100261.72;5015961;28;20073;-79
2022/08/19 11:35:14;;;;;;;10.50;9.60;;;;;;;25.61;93.95;100268.69;4983412;28;20061;-80
2022/08/19 11:37:40;;;;;;;11.15;10.13;;;;;;;25.78;97.07;100280.72;5015985;28;20037;-80
2022/08/19 11:40:08;;;;;;;10.52;9.63;;;;;;;25.66;93.86;100273.69;5002396;28;20048;-79